Abercrombie, North Dakota
Current Conditions -  °F | °C
As of 4:15 AM on Sunday 25 Jan 2015 (Local Time) from KBWP Reporting Station
Overcast Overcast  
Wind Chill: -9°   Ceiling: 4200
Heat Index: -3°   Visibility: 10mi
Dew Point: -6°   Wind: 12mph
Humidity: 80%   Direction: 350°N
Pressure: 29.91"   Gusts: NA
Location:  46.45°N, 96.73°W
Report Text: KBWP 251015Z AUTO 35010KT 10SM OVC042 M03/M06 A2991 RMK AO1
Loading
Personal Weather Stations






























Interactive Weather Map New forecast layout! Learn more

10-Day Weather Forecast

Advertisements
Track Severe Weather on mobile